Time;durP1;ratioP1;P1;durP2;ratioP2;P2;SDS_P1;SDS_P2;PMS_P1;PMS_P2;Temp;Humidity;BMP_temperature;BMP_pressure;BME280_temperature;BME280_humidity;BME280_pressure;Samples;Min_cycle;Max_cycle;Signal;HPM_P1;HPM_P2
2023/06/09 01:08:51;;;;;;;29.70;28.00;;;13.90;99.90;;;;;;4954098;26;20487;-70
2023/06/09 01:11:26;;;;;;;30.13;28.23;;;13.90;99.90;;;;;;4970729;28;20803;-70
2023/06/09 01:14:01;;;;;;;29.80;27.80;;;13.80;99.90;;;;;;4970486;28;20948;-70
2023/06/09 01:16:34;;;;;;;29.67;27.77;;;13.90;99.90;;;;;;4970555;28;20467;-71
2023/06/09 01:19:08;;;;;;;30.23;28.17;;;13.70;99.90;;;;;;4970554;28;20463;-71
2023/06/09 01:21:44;;;;;;;29.87;27.83;;;13.80;99.90;;;;;;4970204;28;20459;-70
2023/06/09 01:24:26;;;;;;;29.80;27.70;;;13.70;99.90;;;;;;4970108;28;20554;-71
2023/06/09 01:26:58;;;;;;;29.57;27.67;;;13.60;99.90;;;;;;4970167;28;20825;-71
2023/06/09 01:29:26;;;;;;;30.27;28.40;;;13.70;99.90;;;;;;4970344;28;20660;-70
2023/06/09 01:31:53;;;;;;;31.50;29.07;;;13.60;99.90;;;;;;4970357;28;20487;-71
2023/06/09 01:34:20;;;;;;;30.07;28.10;;;13.60;99.90;;;;;;4970413;28;20458;-71
2023/06/09 01:36:48;;;;;;;30.00;28.00;;;13.60;99.90;;;;;;4970250;28;20452;-70
2023/06/09 01:39:15;;;;;;;30.23;28.10;;;13.50;99.90;;;;;;4970430;28;21363;-69
2023/06/09 01:41:42;;;;;;;30.93;28.83;;;13.60;99.90;;;;;;4970070;28;20462;-70
2023/06/09 01:44:10;;;;;;;30.83;28.93;;;13.50;99.90;;;;;;4969934;28;20456;-70
2023/06/09 01:46:37;;;;;;;30.07;28.20;;;13.50;99.90;;;;;;4969915;28;20459;-70
2023/06/09 01:49:12;;;;;;;30.50;28.40;;;13.50;99.90;;;;;;4970042;28;20463;-69
2023/06/09 01:51:50;;;;;;;29.30;27.60;;;13.50;99.90;;;;;;4969921;28;20514;-71
2023/06/09 01:54:23;;;;;;;30.87;28.77;;;13.60;99.90;;;;;;4970013;28;20459;-71
2023/06/09 01:56:58;;;;;;;30.27;28.10;;;13.70;99.90;;;;;;4969831;28;20450;-71
2023/06/09 01:59:31;;;;;;;31.13;28.83;;;13.70;99.90;;;;;;4969918;28;20439;-70
2023/06/09 02:02:00;;;;;;;28.10;26.17;;;13.70;99.90;;;;;;4969690;28;20455;-71
2023/06/09 02:04:29;;;;;;;28.57;26.67;;;13.70;99.90;;;;;;4969789;28;20460;-70
2023/06/09 02:06:56;;;;;;;28.83;26.93;;;13.70;99.90;;;;;;4969556;28;20500;-70
2023/06/09 02:09:23;;;;;;;28.70;26.90;;;13.70;99.90;;;;;;4969570;28;20976;-70
2023/06/09 02:11:51;;;;;;;27.60;25.80;;;13.80;99.90;;;;;;4969894;28;20472;-69
2023/06/09 02:14:18;;;;;;;27.93;26.13;;;13.80;99.90;;;;;;4970599;28;20538;-70
2023/06/09 02:16:47;;;;;;;30.97;28.77;;;13.80;99.90;;;;;;4969965;28;20877;-71
2023/06/09 02:19:13;;;;;;;29.33;27.33;;;13.80;99.90;;;;;;4969654;28;20451;-70
2023/06/09 02:21:40;;;;;;;29.80;27.70;;;13.70;99.90;;;;;;4969781;28;20463;-71
2023/06/09 02:24:07;;;;;;;28.47;26.77;;;13.70;99.90;;;;;;4969859;28;20451;-70
2023/06/09 02:26:34;;;;;;;28.57;26.87;;;13.70;99.90;;;;;;4970018;28;20486;-70
2023/06/09 02:29:01;;;;;;;31.80;29.70;;;13.70;99.90;;;;;;4969952;28;20548;-71
2023/06/09 02:31:28;;;;;;;29.50;27.80;;;13.70;99.90;;;;;;4969603;28;20511;-71
2023/06/09 02:33:56;;;;;;;30.10;28.00;;;13.80;99.90;;;;;;4966650;28;20555;-71
2023/06/09 02:36:23;;;;;;;30.20;28.03;;;13.70;99.90;;;;;;4969407;28;20459;-71
2023/06/09 02:38:50;;;;;;;31.43;29.43;;;13.70;99.90;;;;;;4969619;28;20946;-71
2023/06/09 02:41:17;;;;;;;29.97;28.07;;;13.70;99.90;;;;;;4969888;28;20455;-71
2023/06/09 02:43:43;;;;;;;31.03;28.77;;;13.80;99.90;;;;;;4969440;28;20452;-70
2023/06/09 02:46:12;;;;;;;28.50;26.80;;;13.70;99.90;;;;;;4969391;28;20452;-71
2023/06/09 02:48:38;;;;;;;29.20;27.37;;;13.60;99.90;;;;;;4969373;28;20780;-71
2023/06/09 02:51:06;;;;;;;29.17;27.17;;;13.60;99.90;;;;;;4969416;28;20496;-71
2023/06/09 02:53:33;;;;;;;30.67;28.47;;;13.60;99.90;;;;;;4969613;28;20962;-71
2023/06/09 02:56:00;;;;;;;29.10;27.40;;;13.60;99.90;;;;;;4969325;28;20946;-71
2023/06/09 02:58:26;;;;;;;29.80;27.90;;;13.50;99.90;;;;;;4969406;28;20654;-71
2023/06/09 03:00:53;;;;;;;30.97;29.07;;;13.50;99.90;;;;;;4969031;28;20463;-71
2023/06/09 03:03:20;;;;;;;31.07;29.20;;;13.50;99.90;;;;;;4969269;28;20459;-72
2023/06/09 03:05:47;;;;;;;32.50;29.97;;;13.60;99.90;;;;;;4969238;28;20468;-72
2023/06/09 03:08:15;;;;;;;32.57;30.47;;;13.50;99.90;;;;;;4968964;28;20582;-71
2023/06/09 03:10:41;;;;;;;33.00;30.60;;;13.40;99.90;;;;;;4969016;28;20487;-71
2023/06/09 03:13:08;;;;;;;32.73;30.53;;;13.20;99.90;;;;;;4969100;28;20822;-72
2023/06/09 03:15:35;;;;;;;32.73;30.53;;;13.20;99.90;;;;;;4972245;28;20447;-72
2023/06/09 03:18:02;;;;;;;32.70;30.30;;;13.30;99.90;;;;;;4972939;28;20463;-72
2023/06/09 03:20:28;;;;;;;33.50;31.00;;;13.30;99.90;;;;;;4972460;28;20459;-71
2023/06/09 03:22:55;;;;;;;32.27;30.00;;;13.30;99.90;;;;;;4972503;28;20474;-71
2023/06/09 03:25:25;;;;;;;32.90;30.80;;;13.30;99.90;;;;;;4972409;28;20451;-71
2023/06/09 03:27:53;;;;;;;36.17;33.30;;;13.30;99.90;;;;;;4972522;28;20463;-71
2023/06/09 03:30:19;;;;;;;32.93;30.70;;;13.30;99.90;;;;;;4972516;28;20491;-71
2023/06/09 03:32:46;;;;;;;33.90;31.47;;;13.30;99.90;;;;;;4972419;28;20458;-71
2023/06/09 03:35:13;;;;;;;31.70;29.20;;;13.20;99.90;;;;;;4972227;28;20455;-71
2023/06/09 03:37:40;;;;;;;32.97;30.57;;;13.10;99.90;;;;;;4972234;28;20443;-71
2023/06/09 03:40:07;;;;;;;33.77;31.40;;;13.10;99.90;;;;;;4972163;28;20447;-71
2023/06/09 03:42:35;;;;;;;34.60;31.97;;;13.20;99.90;;;;;;4972585;28;20456;-71
2023/06/09 03:45:02;;;;;;;33.87;31.27;;;13.10;99.90;;;;;;4972393;28;20448;-71
2023/06/09 03:47:29;;;;;;;35.83;33.03;;;13.20;99.90;;;;;;4972004;28;20526;-71
2023/06/09 03:49:56;;;;;;;33.53;31.13;;;13.30;99.90;;;;;;4971770;28;20480;-71
2023/06/09 03:52:23;;;;;;;33.80;31.53;;;13.30;99.90;;;;;;4971648;28;20456;-71
2023/06/09 03:54:49;;;;;;;33.60;31.20;;;13.10;99.90;;;;;;4971781;28;20458;-71
2023/06/09 03:57:16;;;;;;;34.07;31.67;;;13.40;99.90;;;;;;4971809;28;20458;-71
2023/06/09 03:59:44;;;;;;;33.73;31.40;;;13.40;99.90;;;;;;4971560;28;20455;-70
2023/06/09 04:02:11;;;;;;;33.53;31.10;;;13.60;99.90;;;;;;4971471;28;20436;-70
2023/06/09 04:04:37;;;;;;;32.40;30.30;;;13.50;99.90;;;;;;4971403;28;20459;-71
2023/06/09 04:07:04;;;;;;;34.63;32.10;;;13.60;99.90;;;;;;4971249;28;20491;-71
2023/06/09 04:09:32;;;;;;;31.60;29.50;;;13.60;99.90;;;;;;4971596;28;20471;-70
2023/06/09 04:11:59;;;;;;;33.50;31.33;;;13.60;99.90;;;;;;4971130;28;20622;-71
2023/06/09 04:14:26;;;;;;;32.57;30.47;;;13.60;99.90;;;;;;4971279;28;20478;-71
2023/06/09 04:16:54;;;;;;;33.30;31.20;;;13.70;99.90;;;;;;4971290;28;20455;-71
2023/06/09 04:19:21;;;;;;;34.30;32.10;;;13.70;99.90;;;;;;4971298;28;20562;-71
2023/06/09 04:21:49;;;;;;;32.70;30.40;;;13.80;99.90;;;;;;4971434;28;20463;-70
2023/06/09 04:24:16;;;;;;;33.57;30.97;;;14.10;99.90;;;;;;4971444;28;20456;-71
2023/06/09 04:26:44;;;;;;;32.03;29.60;;;14.50;99.90;;;;;;4971289;28;20451;-70
2023/06/09 04:29:10;;;;;;;32.30;30.10;;;15.00;99.90;;;;;;4971088;28;20456;-70
2023/06/09 04:31:38;;;;;;;29.63;27.60;;;15.20;99.90;;;;;;4970956;28;20499;-71
2023/06/09 04:34:10;;;;;;;26.97;25.27;;;15.60;99.90;;;;;;4971205;28;20463;-69
2023/06/09 04:36:38;;;;;;;26.50;24.90;;;15.80;99.90;;;;;;4970987;28;20460;-69
2023/06/09 04:39:05;;;;;;;25.77;24.17;;;16.00;99.90;;;;;;4971095;28;20882;-72
2023/06/09 04:41:32;;;;;;;26.50;24.60;;;16.30;99.90;;;;;;4971003;28;20462;-70
2023/06/09 04:44:03;;;;;;;25.27;23.67;;;16.80;99.90;;;;;;4970788;28;20499;-71
2023/06/09 04:46:31;;;;;;;27.23;25.23;;;17.00;99.90;;;;;;4971080;28;20559;-70
2023/06/09 04:48:59;;;;;;;25.50;23.90;;;17.50;99.90;;;;;;4970877;28;20459;-71
2023/06/09 04:51:28;;;;;;;24.87;23.47;;;17.90;99.90;;;;;;4970687;28;20600;-70
2023/06/09 04:53:54;;;;;;;22.87;21.53;;;18.40;99.90;;;;;;4970917;28;20786;-71
2023/06/09 04:56:21;;;;;;;24.10;22.70;;;18.70;99.90;;;;;;4965178;28;20550;-70
2023/06/09 04:58:48;;;;;;;24.73;23.13;;;18.80;99.90;;;;;;4970950;28;20463;-72
2023/06/09 05:01:15;;;;;;;22.70;21.40;;;19.20;99.90;;;;;;4970845;28;20554;-72
2023/06/09 05:03:44;;;;;;;23.93;22.33;;;19.60;99.90;;;;;;4970890;28;20464;-71
2023/06/09 05:06:11;;;;;;;23.83;22.17;;;20.00;99.90;;;;;;4970428;28;20599;-71
2023/06/09 05:08:39;;;;;;;23.40;21.90;;;20.30;99.90;;;;;;4970506;28;20482;-71
2023/06/09 05:11:06;;;;;;;20.93;19.53;;;20.50;99.90;;;;;;4970224;28;20889;-71
2023/06/09 05:13:32;;;;;;;23.00;21.60;;;20.90;99.90;;;;;;4969888;28;20451;-71
2023/06/09 05:16:15;;;;;;;22.97;21.10;;;20.50;99.90;;;;;;4970509;28;20463;-73
2023/06/09 05:18:42;;;;;;;22.37;20.80;;;20.70;99.90;;;;;;4966603;28;20467;-72
2023/06/09 05:21:09;;;;;;;22.27;21.07;;;20.90;99.90;;;;;;4969590;28;20563;-73
2023/06/09 05:23:35;;;;;;;22.80;21.50;;;20.90;99.90;;;;;;4970598;28;20460;-75
2023/06/09 05:26:03;;;;;;;24.20;22.70;;;20.70;99.90;;;;;;4968863;28;20456;-75
2023/06/09 05:28:30;;;;;;;23.37;22.00;;;20.90;99.90;;;;;;4969942;28;20459;-75
2023/06/09 05:30:57;;;;;;;22.63;21.23;;;21.10;99.90;;;;;;4969714;28;20495;-75
2023/06/09 05:33:23;;;;;;;22.73;21.17;;;21.50;99.90;;;;;;4969699;28;20462;-76
2023/06/09 05:35:50;;;;;;;22.70;21.40;;;21.60;99.90;;;;;;4969842;28;20777;-76
2023/06/09 05:38:17;;;;;;;22.00;20.20;;;21.60;99.90;;;;;;4969604;28;20463;-75
2023/06/09 05:40:44;;;;;;;21.63;20.23;;;21.90;99.90;;;;;;4969990;28;20459;-76
2023/06/09 05:43:12;;;;;;;20.40;19.30;;;21.90;99.90;;;;;;4969630;28;20463;-75
2023/06/09 05:45:39;;;;;;;21.37;20.10;;;21.60;99.90;;;;;;4969729;28;20463;-75
2023/06/09 05:48:06;;;;;;;22.13;20.73;;;21.80;99.90;;;;;;4969966;28;20471;-75
2023/06/09 05:50:32;;;;;;;22.67;21.17;;;21.90;99.90;;;;;;4970048;28;20843;-76
2023/06/09 05:52:59;;;;;;;20.80;19.60;;;22.00;99.90;;;;;;4969528;28;20476;-75
2023/06/09 05:55:26;;;;;;;22.10;20.70;;;22.40;99.90;;;;;;4969814;28;20459;-75
2023/06/09 05:57:53;;;;;;;19.67;18.67;;;23.00;99.90;;;;;;4969442;28;20795;-75
2023/06/09 06:00:25;;;;;;;20.50;19.00;;;23.50;99.90;;;;;;4969148;28;20458;-75
2023/06/09 06:02:53;;;;;;;21.20;19.83;;;23.70;99.50;;;;;;4969370;28;20452;-75
2023/06/09 06:05:20;;;;;;;20.60;19.50;;;24.10;99.00;;;;;;4969341;28;20849;-75
2023/06/09 06:07:47;;;;;;;20.40;19.10;;;24.50;98.00;;;;;;4969625;28;20851;-75
2023/06/09 06:10:14;;;;;;;19.23;18.23;;;24.40;97.60;;;;;;4970070;28;20899;-75
2023/06/09 06:12:40;;;;;;;20.23;18.93;;;24.40;97.30;;;;;;4968117;28;20731;-75
2023/06/09 06:15:08;;;;;;;19.60;18.60;;;24.50;97.50;;;;;;4970286;28;20849;-75
2023/06/09 06:17:36;;;;;;;19.53;18.40;;;25.30;95.60;;;;;;4970597;28;20817;-75
2023/06/09 06:20:05;;;;;;;21.30;20.00;;;26.10;94.30;;;;;;4970590;28;20868;-75
2023/06/09 06:22:33;;;;;;;22.33;20.97;;;26.00;93.60;;;;;;4970802;28;20452;-75
2023/06/09 06:25:00;;;;;;;21.10;19.80;;;25.70;94.40;;;;;;4970273;28;20448;-75
2023/06/09 06:27:27;;;;;;;20.67;19.63;;;25.30;95.50;;;;;;4970251;28;20511;-76
2023/06/09 06:29:54;;;;;;;20.90;19.70;;;25.50;95.10;;;;;;4968524;28;20757;-74
2023/06/09 06:32:20;;;;;;;20.20;19.00;;;26.00;93.70;;;;;;4970330;28;20487;-74
2023/06/09 06:34:48;;;;;;;22.10;20.70;;;25.90;93.70;;;;;;4970599;28;20504;-75
2023/06/09 06:37:15;;;;;;;21.33;20.03;;;26.70;93.10;;;;;;4970399;28;20462;-76
2023/06/09 06:39:42;;;;;;;21.80;20.40;;;26.90;91.70;;;;;;4970321;28;20459;-76
2023/06/09 06:42:08;;;;;;;20.80;19.30;;;27.50;91.30;;;;;;4970317;28;20448;-75
2023/06/09 06:44:35;;;;;;;21.77;20.30;;;27.80;90.40;;;;;;4970471;28;20463;-75
2023/06/09 06:47:02;;;;;;;23.30;21.90;;;28.30;89.50;;;;;;4970791;28;20451;-73
2023/06/09 06:49:34;;;;;;;22.30;21.00;;;27.80;89.40;;;;;;4971649;28;20456;-77
2023/06/09 06:52:02;;;;;;;20.90;19.70;;;28.00;89.90;;;;;;4972431;28;20586;-77
2023/06/09 06:54:29;;;;;;;22.30;21.10;;;28.10;88.30;;;;;;4973565;28;20454;-77
2023/06/09 06:56:55;;;;;;;20.80;19.67;;;28.00;89.80;;;;;;4973791;28;20584;-76
2023/06/09 06:59:22;;;;;;;21.63;20.33;;;28.30;88.30;;;;;;4973617;28;20455;-77
2023/06/09 07:01:49;;;;;;;22.33;21.03;;;28.70;87.00;;;;;;4973898;28;20780;-77
2023/06/09 07:04:16;;;;;;;21.27;19.97;;;29.20;84.50;;;;;;4974066;28;20474;-77
2023/06/09 07:06:42;;;;;;;21.53;20.33;;;28.80;84.90;;;;;;4973472;28;20834;-77
2023/06/09 07:09:10;;;;;;;22.80;21.50;;;28.70;86.00;;;;;;4973581;28;20989;-78
2023/06/09 07:11:42;;;;;;;22.30;21.10;;;29.00;85.50;;;;;;4973473;28;20500;-77
2023/06/09 07:14:08;;;;;;;21.30;20.10;;;29.20;84.20;;;;;;4973330;28;21004;-78
2023/06/09 09:36:10;;;;;;;18.00;17.30;;;32.50;56.10;;;;;;5520058;23;20586;-75
2023/06/09 09:38:37;;;;;;;17.60;16.90;;;33.00;55.70;;;;;;4971096;28;20535;-75
2023/06/09 09:41:05;;;;;;;17.30;16.60;;;33.40;54.60;;;;;;4969397;28;20440;-76
2023/06/09 09:43:32;;;;;;;17.30;16.67;;;33.10;55.20;;;;;;4968864;28;20850;-73
2023/06/09 09:46:04;;;;;;;18.30;17.50;;;32.80;55.80;;;;;;4968958;28;20527;-72
2023/06/09 13:54:45;;;;;;;14.97;14.37;;;32.80;49.90;;;;;;5655121;23;20495;-79
2023/06/09 13:57:12;;;;;;;15.50;14.90;;;32.40;50.30;;;;;;4970779;28;20479;-78
2023/06/09 13:59:39;;;;;;;14.43;13.93;;;32.00;49.60;;;;;;4970852;28;20459;-78
2023/06/09 14:02:07;;;;;;;15.33;14.73;;;31.50;51.00;;;;;;4970721;28;20494;-79
2023/06/09 14:04:35;;;;;;;15.47;14.93;;;30.90;50.60;;;;;;4970850;28;20459;-78
2023/06/09 14:07:02;;;;;;;15.10;14.20;;;30.70;50.30;;;;;;4970890;28;20827;-76
2023/06/09 14:09:30;;;;;;;15.47;14.67;;;30.40;51.30;;;;;;4971039;28;20454;-79
2023/06/09 14:11:58;;;;;;;14.83;14.20;;;30.20;50.40;;;;;;4970930;28;20812;-78
2023/06/09 14:14:24;;;;;;;15.20;14.50;;;30.50;51.20;;;;;;4970511;28;20468;-78
2023/06/09 14:16:52;;;;;;;15.03;14.33;;;30.70;51.00;;;;;;4970391;28;20771;-78
2023/06/09 14:19:19;;;;;;;14.80;14.30;;;31.10;51.10;;;;;;4970226;28;20881;-78
2023/06/09 14:21:46;;;;;;;15.40;14.70;;;31.10;50.10;;;;;;4970406;28;20479;-79
2023/06/09 14:24:12;;;;;;;15.10;14.57;;;31.60;50.50;;;;;;4970334;28;20812;-78
2023/06/09 14:26:39;;;;;;;15.53;14.93;;;31.70;51.10;;;;;;4970409;28;20479;-78
2023/06/09 14:29:07;;;;;;;14.30;13.80;;;32.30;49.70;;;;;;4969913;28;20448;-76
2023/06/09 14:31:34;;;;;;;16.07;15.47;;;32.30;49.50;;;;;;4970013;28;20918;-79
2023/06/09 14:34:01;;;;;;;16.47;15.87;;;31.50;49.90;;;;;;4970125;28;20530;-77
2023/06/09 14:36:28;;;;;;;15.57;14.70;;;30.90;50.20;;;;;;4970172;28;20448;-78
2023/06/09 14:38:54;;;;;;;14.30;13.70;;;30.40;50.40;;;;;;4969780;28;20443;-78
2023/06/09 14:41:21;;;;;;;15.10;14.50;;;30.30;50.40;;;;;;4969822;28;20451;-77
2023/06/09 14:43:48;;;;;;;14.67;14.07;;;30.50;50.00;;;;;;4969882;28;20443;-76
2023/06/09 14:46:16;;;;;;;14.93;14.20;;;31.00;50.00;;;;;;4970191;28;20454;-77
2023/06/09 14:48:43;;;;;;;15.10;14.50;;;31.50;49.00;;;;;;4970100;28;20436;-78
2023/06/09 14:51:09;;;;;;;14.70;14.10;;;31.70;48.60;;;;;;4969981;28;20444;-79
2023/06/09 14:53:36;;;;;;;14.40;13.80;;;31.90;48.10;;;;;;4969775;28;20464;-78
2023/06/09 14:56:03;;;;;;;15.03;14.43;;;32.30;48.60;;;;;;4969644;28;20475;-78
2023/06/09 14:58:29;;;;;;;14.70;14.00;;;32.20;48.70;;;;;;4970039;28;20856;-78
2023/06/09 15:00:58;;;;;;;14.37;13.77;;;32.10;48.40;;;;;;4970255;28;20455;-78
2023/06/09 15:03:26;;;;;;;13.40;12.83;;;31.60;48.80;;;;;;4970245;28;20538;-78
2023/06/09 15:05:53;;;;;;;15.03;14.53;;;30.70;49.50;;;;;;4970168;28;20491;-78
2023/06/09 15:08:20;;;;;;;16.00;15.40;;;30.60;50.20;;;;;;4970237;28;20455;-78
2023/06/09 15:10:47;;;;;;;16.10;15.40;;;30.40;49.80;;;;;;4972138;28;20455;-77
2023/06/09 15:13:15;;;;;;;15.30;14.70;;;30.10;50.40;;;;;;4974295;28;20447;-78
2023/06/09 15:15:44;;;;;;;15.90;15.27;;;29.70;50.60;;;;;;4973934;28;20458;-78
2023/06/09 15:18:12;;;;;;;15.27;14.67;;;29.50;51.80;;;;;;4973730;28;20459;-78
2023/06/09 15:20:42;;;;;;;14.03;13.43;;;29.60;52.10;;;;;;4973687;28;20470;-78
2023/06/09 15:23:10;;;;;;;14.97;14.37;;;29.30;51.90;;;;;;4973642;28;20997;-80
2023/06/09 15:25:39;;;;;;;13.80;13.30;;;28.90;52.50;;;;;;4973462;28;20447;-77
2023/06/09 15:28:08;;;;;;;16.40;15.60;;;28.60;52.50;;;;;;4973573;28;20459;-78
2023/06/09 15:30:37;;;;;;;15.13;14.53;;;28.40;52.50;;;;;;4973566;28;20463;-77
2023/06/09 15:33:04;;;;;;;15.13;14.43;;;28.10;52.60;;;;;;4973462;28;20458;-77
2023/06/09 15:35:32;;;;;;;14.40;13.90;;;28.10;52.50;;;;;;4973570;28;20945;-76
2023/06/09 15:38:01;;;;;;;14.77;14.17;;;28.20;52.50;;;;;;4973720;28;20563;-77
2023/06/09 15:40:28;;;;;;;14.30;13.60;;;28.20;52.70;;;;;;4973545;28;20980;-76
2023/06/09 15:42:55;;;;;;;14.07;13.37;;;28.30;53.10;;;;;;4973282;28;20479;-76
2023/06/09 15:45:21;;;;;;;15.30;14.60;;;28.10;52.20;;;;;;4973234;28;20792;-76
2023/06/09 15:47:48;;;;;;;14.87;14.07;;;28.10;52.70;;;;;;4973298;28;20455;-76
2023/06/09 15:50:15;;;;;;;14.27;13.57;;;28.20;53.10;;;;;;4973392;28;20479;-76
2023/06/09 15:52:43;;;;;;;14.70;14.10;;;28.30;52.90;;;;;;4973228;28;20470;-76
2023/06/09 15:55:11;;;;;;;14.13;13.53;;;28.30;52.60;;;;;;4972515;28;20494;-76
2023/06/09 15:57:38;;;;;;;15.40;14.70;;;28.30;53.10;;;;;;4972796;28;21106;-78
2023/06/09 16:00:06;;;;;;;14.83;14.20;;;28.30;52.20;;;;;;4973047;28;20459;-78
2023/06/09 16:02:32;;;;;;;14.70;14.07;;;28.40;52.80;;;;;;4973004;28;20487;-78
2023/06/09 16:04:59;;;;;;;15.27;14.67;;;28.40;53.40;;;;;;4973201;28;20447;-76
2023/06/09 16:07:26;;;;;;;16.00;15.30;;;28.40;52.90;;;;;;4972893;28;20459;-76
2023/06/09 16:09:52;;;;;;;14.70;14.10;;;28.40;52.60;;;;;;4972779;28;20464;-79
2023/06/09 16:12:21;;;;;;;14.97;14.00;;;28.10;52.80;;;;;;4972690;28;20493;-78
2023/06/09 16:14:49;;;;;;;15.47;14.57;;;28.00;53.20;;;;;;4973018;28;20862;-79
2023/06/09 16:17:16;;;;;;;14.07;13.37;;;28.00;53.40;;;;;;4972896;28;20952;-78
2023/06/09 16:19:43;;;;;;;15.30;14.60;;;28.20;53.40;;;;;;4972878;28;20450;-77
2023/06/09 16:22:09;;;;;;;14.17;13.57;;;28.40;52.70;;;;;;4972201;28;20491;-76
2023/06/09 16:24:36;;;;;;;14.27;13.67;;;28.40;52.00;;;;;;4972506;28;20460;-78
2023/06/09 16:27:03;;;;;;;16.00;15.20;;;28.30;51.20;;;;;;4972557;28;20466;-79
2023/06/09 16:29:30;;;;;;;14.60;13.90;;;28.30;52.10;;;;;;4972718;28;20812;-78
2023/06/09 16:31:57;;;;;;;15.80;15.10;;;28.30;52.20;;;;;;4972779;28;20448;-78
2023/06/09 16:34:24;;;;;;;15.20;14.50;;;28.40;52.10;;;;;;4972323;28;20823;-77
2023/06/09 16:36:50;;;;;;;15.33;14.53;;;28.40;51.30;;;;;;4972267;28;20463;-77
2023/06/09 16:39:17;;;;;;;15.80;14.70;;;28.00;51.30;;;;;;4972281;28;20821;-77
2023/06/09 16:41:44;;;;;;;14.53;13.93;;;27.90;51.30;;;;;;4972518;28;20459;-76
2023/06/09 16:44:11;;;;;;;16.13;15.33;;;27.90;51.60;;;;;;4972005;28;20490;-76
2023/06/09 16:46:39;;;;;;;16.40;15.60;;;28.00;52.20;;;;;;4972127;28;21040;-76
2023/06/09 16:49:06;;;;;;;14.67;14.07;;;27.90;50.70;;;;;;4971885;28;20777;-76
2023/06/09 16:51:33;;;;;;;14.90;14.10;;;27.80;51.10;;;;;;4972240;28;20946;-81
2023/06/09 16:53:59;;;;;;;15.63;14.50;;;27.70;51.60;;;;;;4971854;28;20476;-77
2023/06/09 16:56:26;;;;;;;15.60;14.80;;;27.70;50.80;;;;;;4971842;28;20962;-77
2023/06/09 16:58:53;;;;;;;14.20;13.60;;;27.80;50.90;;;;;;4971790;28;20467;-77
2023/06/09 17:01:19;;;;;;;14.27;13.67;;;27.80;51.30;;;;;;4971405;28;20477;-78
2023/06/09 17:03:47;;;;;;;15.80;14.90;;;27.80;51.20;;;;;;4968860;28;20491;-78
2023/06/09 17:06:14;;;;;;;15.47;14.67;;;27.90;52.00;;;;;;4971494;28;20448;-77
2023/06/09 17:08:42;;;;;;;15.33;14.43;;;27.90;51.80;;;;;;4971212;28;20448;-77
2023/06/09 17:11:08;;;;;;;14.40;13.70;;;27.90;51.10;;;;;;4971102;28;20448;-77
2023/06/09 17:13:36;;;;;;;14.17;13.50;;;27.80;51.20;;;;;;4971187;28;20443;-77
2023/06/09 17:16:03;;;;;;;15.20;14.40;;;27.70;51.40;;;;;;4971023;28;20462;-77
2023/06/09 17:18:29;;;;;;;14.37;13.73;;;27.70;52.10;;;;;;4971317;28;20882;-78
2023/06/09 17:20:58;;;;;;;14.63;13.80;;;27.80;51.40;;;;;;4970583;28;20814;-77
2023/06/09 17:23:24;;;;;;;15.60;14.90;;;27.90;51.90;;;;;;4970457;28;20479;-77
2023/06/09 17:25:51;;;;;;;15.90;15.10;;;27.80;51.90;;;;;;4970758;28;20470;-77
2023/06/09 17:28:18;;;;;;;15.27;14.57;;;27.80;53.70;;;;;;4970918;28;20474;-77
2023/06/09 17:30:44;;;;;;;15.33;14.73;;;27.80;55.10;;;;;;4970941;28;20455;-77
2023/06/09 17:33:11;;;;;;;16.33;15.40;;;27.40;57.00;;;;;;4970403;28;20519;-77
2023/06/09 17:35:38;;;;;;;15.83;15.03;;;27.30;57.40;;;;;;4970715;28;20530;-76
2023/06/09 17:38:06;;;;;;;14.93;14.20;;;27.20;57.90;;;;;;4970461;28;20452;-77
2023/06/09 17:40:32;;;;;;;16.77;16.00;;;27.10;58.20;;;;;;4970651;28;20447;-76
2023/06/09 17:42:59;;;;;;;15.77;15.07;;;27.00;58.50;;;;;;4970902;28;20488;-77
2023/06/09 17:45:26;;;;;;;17.53;16.00;;;27.00;58.50;;;;;;4970562;28;20448;-76
2023/06/09 17:47:53;;;;;;;16.50;15.43;;;26.90;59.10;;;;;;4970522;28;20494;-77
2023/06/09 17:50:19;;;;;;;16.80;15.77;;;26.90;59.30;;;;;;4970272;28;20784;-77
2023/06/09 17:52:46;;;;;;;16.50;15.70;;;26.90;59.40;;;;;;4970594;28;20503;-77
2023/06/09 17:55:14;;;;;;;15.47;14.77;;;26.80;59.80;;;;;;4970459;28;20476;-77
2023/06/09 17:57:41;;;;;;;16.83;16.03;;;26.80;59.80;;;;;;4970467;28;20448;-76
2023/06/09 18:00:09;;;;;;;16.93;16.13;;;26.70;60.20;;;;;;4970322;28;20566;-77
2023/06/09 18:02:36;;;;;;;16.67;15.57;;;26.70;60.30;;;;;;4970849;28;20523;-77
2023/06/09 18:05:03;;;;;;;16.73;15.93;;;26.50;60.50;;;;;;4970451;28;20804;-77
2023/06/09 18:07:30;;;;;;;17.13;16.13;;;26.40;61.20;;;;;;4971049;28;20491;-77
2023/06/09 18:09:57;;;;;;;15.70;14.90;;;26.40;61.80;;;;;;4970712;28;20793;-80
2023/06/09 18:12:25;;;;;;;16.20;15.40;;;26.40;61.70;;;;;;4970751;28;20447;-77
2023/06/09 18:14:52;;;;;;;17.57;16.67;;;26.40;61.80;;;;;;4964964;28;20948;-77
2023/06/09 18:17:18;;;;;;;16.93;16.13;;;26.30;62.30;;;;;;4970011;28;20980;-77
2023/06/09 18:19:45;;;;;;;18.90;17.80;;;26.40;62.20;;;;;;4970359;28;20459;-77
2023/06/09 18:22:12;;;;;;;16.40;15.63;;;26.30;62.50;;;;;;4970295;28;20655;-77
2023/06/09 18:24:38;;;;;;;16.83;15.93;;;26.30;60.90;;;;;;4970280;28;20900;-77
2023/06/09 18:27:06;;;;;;;17.13;16.33;;;26.20;61.20;;;;;;4970384;28;20448;-77
2023/06/09 18:29:34;;;;;;;16.77;15.97;;;26.20;61.30;;;;;;4970369;28;20459;-79
2023/06/09 18:32:01;;;;;;;16.17;15.47;;;26.10;60.10;;;;;;4970775;28;20522;-76
2023/06/09 18:34:27;;;;;;;16.70;15.90;;;26.00;60.30;;;;;;4970556;28;20479;-77
2023/06/09 18:36:54;;;;;;;17.60;16.70;;;25.90;60.60;;;;;;4970439;28;20465;-78
2023/06/09 18:39:21;;;;;;;16.70;15.80;;;25.90;61.00;;;;;;4970227;28;21075;-77
2023/06/09 18:41:47;;;;;;;17.47;16.33;;;25.90;60.70;;;;;;4970324;28;20870;-77
2023/06/09 18:44:17;;;;;;;16.73;15.83;;;25.80;60.80;;;;;;4971504;28;20889;-76
2023/06/09 18:46:45;;;;;;;18.80;17.27;;;25.80;61.50;;;;;;4974514;28;20555;-76
2023/06/09 18:49:12;;;;;;;16.83;15.83;;;25.70;61.70;;;;;;4974266;28;20452;-76
2023/06/09 18:51:38;;;;;;;16.57;15.87;;;25.60;62.00;;;;;;4973671;28;20550;-76
2023/06/09 18:54:05;;;;;;;16.70;15.70;;;25.60;62.20;;;;;;4973160;28;20493;-76
2023/06/09 18:56:32;;;;;;;16.73;15.83;;;25.60;62.60;;;;;;4973600;28;20447;-76
2023/06/09 18:58:59;;;;;;;16.53;15.73;;;25.40;63.30;;;;;;4973566;28;20964;-76
2023/06/09 19:01:27;;;;;;;17.30;16.50;;;25.30;64.00;;;;;;4973188;28;20503;-77
2023/06/09 19:03:55;;;;;;;15.97;15.23;;;25.30;64.50;;;;;;4973289;28;20518;-76
2023/06/09 19:06:21;;;;;;;16.50;15.60;;;25.30;64.80;;;;;;4971250;28;20447;-76
2023/06/09 19:08:48;;;;;;;16.30;15.40;;;25.20;65.30;;;;;;4973165;28;20455;-76
2023/06/09 19:11:15;;;;;;;16.63;15.73;;;25.10;66.00;;;;;;4973401;28;20451;-76
2023/06/09 19:13:41;;;;;;;15.97;15.07;;;25.00;66.60;;;;;;4973114;28;20443;-77
2023/06/09 19:16:08;;;;;;;16.47;15.30;;;24.80;67.30;;;;;;4970606;28;20482;-77
2023/06/09 19:18:35;;;;;;;16.63;15.77;;;24.70;67.70;;;;;;4970028;28;20456;-77
2023/06/09 19:21:03;;;;;;;16.40;15.40;;;24.70;67.30;;;;;;4972669;28;20456;-77
2023/06/09 19:23:30;;;;;;;15.77;15.07;;;24.70;67.10;;;;;;4972618;28;20494;-77
2023/06/09 19:25:56;;;;;;;16.93;16.13;;;24.70;67.20;;;;;;4972929;28;20542;-77
2023/06/09 19:28:23;;;;;;;16.50;15.70;;;24.60;67.10;;;;;;4970495;28;20447;-77
2023/06/09 19:30:50;;;;;;;16.23;15.10;;;24.60;67.50;;;;;;4972938;28;20439;-77
2023/06/09 19:33:16;;;;;;;16.37;15.57;;;24.50;66.90;;;;;;4973118;28;20538;-77
2023/06/09 19:35:43;;;;;;;15.97;15.27;;;24.50;67.40;;;;;;4973045;28;20452;-77
2023/06/09 19:38:11;;;;;;;15.30;14.60;;;24.50;66.60;;;;;;4972723;28;20456;-77
2023/06/09 19:40:38;;;;;;;16.80;16.00;;;24.40;66.90;;;;;;4972687;28;20462;-77
2023/06/09 19:43:05;;;;;;;16.27;15.47;;;24.30;67.00;;;;;;4972521;28;20546;-76
2023/06/09 19:45:31;;;;;;;15.23;14.53;;;24.30;67.20;;;;;;4972844;28;20462;-76
2023/06/09 19:47:58;;;;;;;16.70;16.00;;;24.30;67.70;;;;;;4972744;28;20452;-75
2023/06/09 19:50:25;;;;;;;15.67;14.87;;;24.20;68.20;;;;;;4972651;28;20444;-76
2023/06/09 19:52:53;;;;;;;16.97;15.43;;;24.10;68.50;;;;;;4972541;28;20529;-74
2023/06/09 19:55:21;;;;;;;16.20;15.20;;;24.00;67.70;;;;;;4971962;28;20483;-75
2023/06/09 19:57:48;;;;;;;16.27;15.30;;;24.00;68.40;;;;;;4972237;28;20455;-75
2023/06/09 20:00:18;;;;;;;15.27;14.47;;;23.80;68.90;;;;;;4972787;28;20451;-76
2023/06/09 20:02:44;;;;;;;16.17;15.37;;;23.70;69.80;;;;;;4970627;28;20452;-76